Time;durP1;ratioP1;P1;durP2;ratioP2;P2;SDS_P1;SDS_P2;PMS_P1;PMS_P2;Temp;Humidity;BMP_temperature;BMP_pressure;BME280_temperature;BME280_humidity;BME280_pressure;Samples;Min_cycle;Max_cycle;Signal;HPM_P1;HPM_P2
2022/03/17 00:01:20;;;;;;;43.33;19.83;;;;;;;;;;5087607;28;20034;-48
2022/03/17 00:03:46;;;;;;;49.08;22.10;;;;;;;;;;5093963;28;20456;-46
2022/03/17 00:06:13;;;;;;;45.40;21.23;;;;;;;;;;5089592;28;20035;-48
2022/03/17 00:08:39;;;;;;;44.90;21.35;;;;;;;;;;5092510;28;20035;-47
2022/03/17 00:11:05;;;;;;;46.58;21.40;;;;;;;;;;5078913;28;20028;-48
2022/03/17 00:13:31;;;;;;;47.30;21.50;;;;;;;;;;5085154;28;20376;-48
2022/03/17 00:15:57;;;;;;;47.63;22.85;;;;;;;;;;5082399;28;20036;-46
2022/03/17 00:18:23;;;;;;;48.03;21.00;;;;;;;;;;5089601;28;20035;-50
2022/03/17 00:20:50;;;;;;;48.85;20.98;;;;;;;;;;5090915;28;20101;-48
2022/03/17 00:23:16;;;;;;;47.28;20.83;;;;;;;;;;5082689;28;20579;-51
2022/03/17 00:25:42;;;;;;;48.83;19.95;;;;;;;;;;5080491;28;20063;-46
2022/03/17 00:28:08;;;;;;;50.05;21.67;;;;;;;;;;5090355;28;20406;-49
2022/03/17 00:30:34;;;;;;;48.47;22.15;;;;;;;;;;5088294;28;20020;-50
2022/03/17 00:33:00;;;;;;;44.38;20.27;;;;;;;;;;5088635;28;20032;-50
2022/03/17 00:35:35;;;;;;;43.58;19.70;;;;;;;;;;5088743;28;20048;-48
2022/03/17 00:38:02;;;;;;;50.45;22.42;;;;;;;;;;5082963;28;20020;-48
2022/03/17 00:40:28;;;;;;;51.70;22.20;;;;;;;;;;5089726;28;20036;-49
2022/03/17 00:42:55;;;;;;;47.22;21.70;;;;;;;;;;5090188;28;20094;-48
2022/03/17 00:45:22;;;;;;;49.45;22.08;;;;;;;;;;5087816;28;20047;-48
2022/03/17 00:47:48;;;;;;;43.20;20.35;;;;;;;;;;5092023;28;20032;-50
2022/03/17 00:50:14;;;;;;;48.55;21.80;;;;;;;;;;5094153;28;20077;-47
2022/03/17 00:52:40;;;;;;;45.83;20.50;;;;;;;;;;5078887;28;20453;-47
2022/03/17 00:55:07;;;;;;;45.20;20.38;;;;;;;;;;5083422;28;20058;-48
2022/03/17 00:57:34;;;;;;;47.22;20.90;;;;;;;;;;5089890;28;20032;-47
2022/03/17 01:00:00;;;;;;;45.80;20.80;;;;;;;;;;5085765;28;20021;-47
2022/03/17 01:02:26;;;;;;;43.63;21.40;;;;;;;;;;5093178;28;20524;-47
2022/03/17 01:04:52;;;;;;;45.25;21.85;;;;;;;;;;5094451;28;20089;-47
2022/03/17 01:07:18;;;;;;;45.95;21.02;;;;;;;;;;5094284;28;20497;-48
2022/03/17 01:09:44;;;;;;;51.70;23.00;;;;;;;;;;5091701;28;20731;-47
2022/03/17 01:12:10;;;;;;;50.03;23.15;;;;;;;;;;5089388;28;20019;-47
2022/03/17 01:14:36;;;;;;;49.15;22.70;;;;;;;;;;5088363;28;20021;-48
2022/03/17 01:17:02;;;;;;;45.75;22.33;;;;;;;;;;5087399;28;20016;-47
2022/03/17 01:19:29;;;;;;;47.05;22.35;;;;;;;;;;5081468;28;20028;-47
2022/03/17 01:21:55;;;;;;;51.30;21.65;;;;;;;;;;5091918;28;20028;-49
2022/03/17 01:24:21;;;;;;;48.20;22.42;;;;;;;;;;5080254;28;20176;-49
2022/03/17 01:26:47;;;;;;;56.78;24.63;;;;;;;;;;5083697;28;20046;-47
2022/03/17 01:29:13;;;;;;;54.45;23.58;;;;;;;;;;5092478;28;20035;-48
2022/03/17 01:31:39;;;;;;;47.90;21.42;;;;;;;;;;5090993;28;20027;-48
2022/03/17 01:34:05;;;;;;;55.53;24.20;;;;;;;;;;5079112;28;20043;-47
2022/03/17 01:36:31;;;;;;;54.83;25.27;;;;;;;;;;5078698;28;20020;-47
2022/03/17 01:38:57;;;;;;;47.70;21.88;;;;;;;;;;5090926;28;20039;-47
2022/03/17 01:41:23;;;;;;;58.20;24.95;;;;;;;;;;5083082;28;20052;-47
2022/03/17 01:43:50;;;;;;;50.90;22.30;;;;;;;;;;5093283;28;20111;-47
2022/03/17 01:46:17;;;;;;;49.25;23.83;;;;;;;;;;5088976;28;20078;-47
2022/03/17 01:48:43;;;;;;;48.45;22.30;;;;;;;;;;5076457;28;20044;-47
2022/03/17 01:51:09;;;;;;;57.65;24.98;;;;;;;;;;5076089;28;20614;-48
2022/03/17 01:53:36;;;;;;;45.83;21.52;;;;;;;;;;5086636;28;20086;-51
2022/03/17 01:56:03;;;;;;;51.58;22.63;;;;;;;;;;5089171;28;20017;-47
2022/03/17 01:58:29;;;;;;;54.13;23.27;;;;;;;;;;5080105;28;20075;-51
2022/03/17 02:00:55;;;;;;;51.30;23.23;;;;;;;;;;5087753;28;20056;-47
2022/03/17 02:03:21;;;;;;;56.03;25.60;;;;;;;;;;5083284;28;20020;-47
2022/03/17 02:05:47;;;;;;;55.03;24.52;;;;;;;;;;5092319;28;20032;-47
2022/03/17 02:08:16;;;;;;;56.33;24.75;;;;;;;;;;5085979;28;20029;-48
2022/03/17 02:13:27;;;;;;;60.28;25.65;;;;;;;;;;5085805;28;20043;-48
2022/03/17 02:15:53;;;;;;;59.92;26.73;;;;;;;;;;5087936;28;20411;-47
2022/03/17 02:18:19;;;;;;;55.70;26.48;;;;;;;;;;5084825;28;20036;-48
2022/03/17 02:20:46;;;;;;;58.97;26.45;;;;;;;;;;5089685;28;20032;-47
2022/03/17 02:26:00;;;;;;;57.92;25.70;;;;;;;;;;5080942;28;20048;-47
2022/03/17 02:28:27;;;;;;;52.15;24.77;;;;;;;;;;5084819;28;20020;-47
2022/03/17 02:30:54;;;;;;;58.08;26.75;;;;;;;;;;5091810;28;20030;-47
2022/03/17 02:33:20;;;;;;;64.82;28.75;;;;;;;;;;5079711;28;20036;-47
2022/03/17 02:35:47;;;;;;;63.00;28.30;;;;;;;;;;5088402;28;20025;-47
2022/03/17 02:38:14;;;;;;;61.58;27.67;;;;;;;;;;5082094;28;20069;-48
2022/03/17 02:40:40;;;;;;;62.08;27.25;;;;;;;;;;5082376;28;20028;-47
2022/03/17 02:43:06;;;;;;;54.80;24.60;;;;;;;;;;5088352;28;20467;-47
2022/03/17 02:45:32;;;;;;;66.57;28.98;;;;;;;;;;5088733;28;20024;-47
2022/03/17 02:47:58;;;;;;;53.65;25.02;;;;;;;;;;5087588;28;20537;-51
2022/03/17 02:50:25;;;;;;;64.63;27.70;;;;;;;;;;5092374;28;20024;-50
2022/03/17 02:52:51;;;;;;;62.17;27.63;;;;;;;;;;5080797;28;20083;-49
2022/03/17 02:55:17;;;;;;;57.67;24.48;;;;;;;;;;5077365;28;20033;-50
2022/03/17 02:57:47;;;;;;;59.05;27.20;;;;;;;;;;5089658;28;20020;-53
2022/03/17 03:00:14;;;;;;;61.83;27.05;;;;;;;;;;5091649;28;20032;-48
2022/03/17 03:02:40;;;;;;;56.70;27.73;;;;;;;;;;5085424;28;20020;-47
2022/03/17 03:05:07;;;;;;;64.57;29.20;;;;;;;;;;5081957;28;20353;-47
2022/03/17 03:07:34;;;;;;;59.45;27.63;;;;;;;;;;5088592;28;20032;-47
2022/03/17 03:10:00;;;;;;;65.43;28.73;;;;;;;;;;5074025;28;20496;-47
2022/03/17 03:12:26;;;;;;;65.70;28.80;;;;;;;;;;5083562;28;20104;-47
2022/03/17 03:14:52;;;;;;;60.78;29.95;;;;;;;;;;5083192;28;20059;-47
2022/03/17 03:17:21;;;;;;;65.80;28.95;;;;;;;;;;5079692;28;20108;-47
2022/03/17 03:19:47;;;;;;;60.70;28.88;;;;;;;;;;5083692;28;20145;-47
2022/03/17 03:22:13;;;;;;;64.47;29.23;;;;;;;;;;5085363;28;20028;-47
2022/03/17 03:24:38;;;;;;;57.50;28.63;;;;;;;;;;5080624;28;20090;-47
2022/03/17 03:27:05;;;;;;;63.15;29.65;;;;;;;;;;5079414;28;20024;-47
2022/03/17 03:29:31;;;;;;;64.10;30.00;;;;;;;;;;5086073;28;20115;-47
2022/03/17 03:32:02;;;;;;;59.38;27.70;;;;;;;;;;5077528;28;20037;-49
2022/03/17 03:34:29;;;;;;;61.80;28.63;;;;;;;;;;5074876;28;20024;-48
2022/03/17 03:39:39;;;;;;;64.80;29.70;;;;;;;;;;5087957;28;20391;-48
2022/03/17 03:42:07;;;;;;;64.43;29.98;;;;;;;;;;5079427;28;20056;-47
2022/03/17 03:44:33;;;;;;;64.03;30.95;;;;;;;;;;5087126;28;20039;-48
2022/03/17 03:46:59;;;;;;;61.42;29.75;;;;;;;;;;5087974;28;20405;-49
2022/03/17 03:49:25;;;;;;;64.40;29.50;;;;;;;;;;5082873;28;20029;-48
2022/03/17 03:51:51;;;;;;;68.53;32.63;;;;;;;;;;5090145;28;20024;-49
2022/03/17 03:54:17;;;;;;;65.00;30.27;;;;;;;;;;5089583;28;20084;-47
2022/03/17 03:56:45;;;;;;;66.95;30.73;;;;;;;;;;5089472;28;20051;-49
2022/03/17 03:59:20;;;;;;;65.70;31.02;;;;;;;;;;5082598;28;20025;-47
2022/03/17 04:01:51;;;;;;;63.58;29.23;;;;;;;;;;5082267;28;20024;-47
2022/03/17 04:04:20;;;;;;;66.30;29.75;;;;;;;;;;5079346;28;20032;-47
2022/03/17 04:06:47;;;;;;;61.38;30.85;;;;;;;;;;5089611;28;20112;-47
2022/03/17 04:09:14;;;;;;;63.58;31.70;;;;;;;;;;5083100;28;20048;-48
2022/03/17 04:11:41;;;;;;;74.45;31.80;;;;;;;;;;5083578;28;20031;-48
2022/03/17 04:14:07;;;;;;;59.15;28.63;;;;;;;;;;5077258;28;20482;-47
2022/03/17 04:16:34;;;;;;;68.53;31.75;;;;;;;;;;5080319;28;20036;-50
2022/03/17 04:19:00;;;;;;;63.05;29.75;;;;;;;;;;5091482;28;20383;-47
2022/03/17 04:21:26;;;;;;;61.47;30.45;;;;;;;;;;5090077;28;20032;-50
2022/03/17 04:23:52;;;;;;;72.85;30.77;;;;;;;;;;5087795;28;20102;-47
2022/03/17 04:26:18;;;;;;;65.90;31.60;;;;;;;;;;5087685;28;20040;-50
2022/03/17 04:28:44;;;;;;;65.53;30.75;;;;;;;;;;5091940;28;20063;-47
2022/03/17 04:31:10;;;;;;;67.65;30.77;;;;;;;;;;5077899;28;20044;-47
2022/03/17 04:33:36;;;;;;;71.82;31.50;;;;;;;;;;5090041;28;20155;-47
2022/03/17 04:36:03;;;;;;;70.57;31.63;;;;;;;;;;5093752;28;20081;-50
2022/03/17 04:38:29;;;;;;;74.32;33.15;;;;;;;;;;5094395;28;20028;-48
2022/03/17 04:40:55;;;;;;;62.47;30.30;;;;;;;;;;5087941;28;20035;-48
2022/03/17 04:43:21;;;;;;;65.45;32.30;;;;;;;;;;5093267;28;20429;-47
2022/03/17 04:45:47;;;;;;;71.07;31.60;;;;;;;;;;5089367;28;20460;-48
2022/03/17 04:48:14;;;;;;;66.95;32.60;;;;;;;;;;5093070;28;20020;-50
2022/03/17 04:50:40;;;;;;;74.88;33.17;;;;;;;;;;5089783;28;20106;-47
2022/03/17 04:55:51;;;;;;;67.88;32.05;;;;;;;;;;5091034;28;20035;-47
2022/03/17 04:58:17;;;;;;;70.88;32.70;;;;;;;;;;5084801;28;20028;-47
2022/03/17 05:00:42;;;;;;;71.25;32.90;;;;;;;;;;5089349;28;20074;-49
2022/03/17 05:03:09;;;;;;;69.85;32.45;;;;;;;;;;5088470;28;20035;-47
2022/03/17 05:05:35;;;;;;;68.63;32.97;;;;;;;;;;5081682;28;20034;-47
2022/03/17 05:08:01;;;;;;;73.80;33.20;;;;;;;;;;5092974;28;20012;-47
2022/03/17 05:10:28;;;;;;;75.55;33.45;;;;;;;;;;5081220;28;20028;-49
2022/03/17 05:12:55;;;;;;;64.97;30.98;;;;;;;;;;5091679;28;20031;-47
2022/03/17 05:15:21;;;;;;;67.55;32.28;;;;;;;;;;5083857;28;20042;-48
2022/03/17 05:17:47;;;;;;;74.18;33.70;;;;;;;;;;5091839;28;20024;-47
2022/03/17 05:20:14;;;;;;;69.43;31.77;;;;;;;;;;5082944;28;20036;-48
2022/03/17 05:22:41;;;;;;;75.82;32.50;;;;;;;;;;5081401;28;20503;-47
2022/03/17 05:25:10;;;;;;;73.82;33.95;;;;;;;;;;5079728;28;20323;-48
2022/03/17 05:27:40;;;;;;;71.00;33.38;;;;;;;;;;5086078;28;20051;-47
2022/03/17 05:30:06;;;;;;;74.15;34.00;;;;;;;;;;5078445;28;20061;-47
2022/03/17 05:32:33;;;;;;;69.53;32.33;;;;;;;;;;5081323;28;20070;-48
2022/03/17 05:34:59;;;;;;;71.63;34.40;;;;;;;;;;5082451;28;20028;-46
2022/03/17 05:37:25;;;;;;;74.40;35.30;;;;;;;;;;5087817;28;20055;-48
2022/03/17 05:39:52;;;;;;;71.97;34.35;;;;;;;;;;5088527;28;20028;-47
2022/03/17 05:42:18;;;;;;;67.30;34.15;;;;;;;;;;5081812;28;20104;-46
2022/03/17 05:44:44;;;;;;;75.57;33.95;;;;;;;;;;5090422;28;20443;-48
2022/03/17 05:47:10;;;;;;;73.65;35.35;;;;;;;;;;5093621;28;20104;-47
2022/03/17 05:49:36;;;;;;;72.90;33.75;;;;;;;;;;5089141;28;20024;-47
2022/03/17 05:52:02;;;;;;;70.35;33.60;;;;;;;;;;5086646;28;20081;-47
2022/03/17 05:54:28;;;;;;;79.15;35.55;;;;;;;;;;5085362;28;20040;-47
2022/03/17 05:56:54;;;;;;;74.28;33.90;;;;;;;;;;5085124;28;20368;-49
2022/03/17 05:59:21;;;;;;;72.32;34.95;;;;;;;;;;5088637;28;20081;-51
2022/03/17 06:01:47;;;;;;;73.95;34.22;;;;;;;;;;5076688;28;20032;-49
2022/03/17 06:04:13;;;;;;;73.43;34.45;;;;;;;;;;5076457;28;20524;-49
2022/03/17 06:06:39;;;;;;;77.25;34.78;;;;;;;;;;5079963;28;20044;-48
2022/03/17 06:09:05;;;;;;;74.72;33.45;;;;;;;;;;5095817;28;20028;-47
2022/03/17 06:11:31;;;;;;;72.78;33.85;;;;;;;;;;5086303;28;20032;-47
2022/03/17 06:13:59;;;;;;;90.40;41.20;;;;;;;;;;5085817;28;20032;-47
2022/03/17 06:16:25;;;;;;;66.60;32.95;;;;;;;;;;5074728;28;20059;-47
2022/03/17 06:18:51;;;;;;;74.18;34.85;;;;;;;;;;5082783;28;20031;-48
2022/03/17 06:21:17;;;;;;;75.85;34.55;;;;;;;;;;5086537;28;20103;-46
2022/03/17 06:23:43;;;;;;;72.82;32.47;;;;;;;;;;5086917;28;20028;-50
2022/03/17 06:26:09;;;;;;;74.05;34.67;;;;;;;;;;5088284;28;20036;-47
2022/03/17 06:28:35;;;;;;;74.07;34.65;;;;;;;;;;5093016;28;20030;-48
2022/03/17 06:31:01;;;;;;;70.53;35.17;;;;;;;;;;5081308;28;20032;-48
2022/03/17 06:33:29;;;;;;;79.10;35.30;;;;;;;;;;5086370;28;20491;-47
2022/03/17 06:35:55;;;;;;;73.63;34.38;;;;;;;;;;5085763;28;20051;-47
2022/03/17 06:38:21;;;;;;;75.80;33.83;;;;;;;;;;5077268;28;20468;-47
2022/03/17 06:40:47;;;;;;;73.13;34.78;;;;;;;;;;5085321;28;20107;-47
2022/03/17 06:43:17;;;;;;;100.68;54.08;;;;;;;;;;5088325;28;20032;-48
2022/03/17 06:45:43;;;;;;;82.53;41.45;;;;;;;;;;5084118;28;20020;-50
2022/03/17 06:48:09;;;;;;;71.15;33.15;;;;;;;;;;5083109;28;20460;-47
2022/03/17 06:50:35;;;;;;;67.20;34.60;;;;;;;;;;5084522;28;20027;-48
2022/03/17 06:53:01;;;;;;;75.80;32.60;;;;;;;;;;5083526;28;20043;-47
2022/03/17 06:55:27;;;;;;;71.72;33.13;;;;;;;;;;5080545;28;20111;-47
2022/03/17 06:57:53;;;;;;;75.88;35.95;;;;;;;;;;5089084;28;20099;-47
2022/03/17 07:00:19;;;;;;;71.72;34.60;;;;;;;;;;5093241;28;20039;-48
2022/03/17 07:02:46;;;;;;;67.85;34.20;;;;;;;;;;5091755;28;20449;-47
2022/03/17 07:05:12;;;;;;;66.15;33.35;;;;;;;;;;5091868;28;20017;-48
2022/03/17 07:07:39;;;;;;;79.93;35.47;;;;;;;;;;5091683;28;20085;-47
2022/03/17 07:10:06;;;;;;;71.78;34.65;;;;;;;;;;5091941;28;20028;-51
2022/03/17 07:12:32;;;;;;;75.40;34.53;;;;;;;;;;5087895;28;20141;-47
2022/03/17 07:14:58;;;;;;;70.82;34.25;;;;;;;;;;5091730;28;20036;-48
2022/03/17 07:17:24;;;;;;;69.88;34.33;;;;;;;;;;5091709;28;20032;-47
2022/03/17 07:22:23;;;;;;;73.90;34.40;;;;;;;;;;5077921;28;20384;-49
2022/03/17 07:24:49;;;;;;;76.80;34.83;;;;;;;;;;5073556;28;20469;-48
2022/03/17 07:27:15;;;;;;;71.22;33.35;;;;;;;;;;5084729;28;20022;-48
2022/03/17 07:29:41;;;;;;;68.97;33.00;;;;;;;;;;5087634;28;20445;-47
2022/03/17 07:32:07;;;;;;;65.00;32.05;;;;;;;;;;5086021;28;20493;-47
2022/03/17 07:34:33;;;;;;;75.47;34.85;;;;;;;;;;5078160;28;20028;-47
2022/03/17 07:36:59;;;;;;;69.97;34.63;;;;;;;;;;5083034;28;20013;-47
2022/03/17 07:39:25;;;;;;;74.65;33.90;;;;;;;;;;5086843;28;20089;-46
2022/03/17 07:41:51;;;;;;;69.50;34.17;;;;;;;;;;5091498;28;20020;-47
2022/03/17 07:44:17;;;;;;;65.65;33.50;;;;;;;;;;5082243;28;20028;-47
2022/03/17 07:46:43;;;;;;;76.45;35.33;;;;;;;;;;5091983;28;20032;-47
2022/03/17 07:49:09;;;;;;;71.22;33.25;;;;;;;;;;5084207;28;20031;-47
2022/03/17 07:51:37;;;;;;;67.80;32.58;;;;;;;;;;5089416;28;20023;-47
2022/03/17 07:54:03;;;;;;;69.60;34.50;;;;;;;;;;5087446;28;20447;-51
2022/03/17 07:56:29;;;;;;;71.63;34.67;;;;;;;;;;5095846;28;20107;-48
2022/03/17 07:58:55;;;;;;;73.20;34.45;;;;;;;;;;5090018;28;21164;-47
2022/03/17 08:01:24;;;;;;;69.78;33.85;;;;;;;;;;5094616;28;20445;-47
2022/03/17 08:03:50;;;;;;;78.90;36.35;;;;;;;;;;5081256;28;20537;-47
2022/03/17 08:06:18;;;;;;;70.45;33.00;;;;;;;;;;5093199;28;20078;-48
2022/03/17 08:08:46;;;;;;;69.25;34.42;;;;;;;;;;5095821;28;20438;-48
2022/03/17 08:11:12;;;;;;;70.93;34.53;;;;;;;;;;5094784;28;20069;-48
2022/03/17 08:13:38;;;;;;;72.00;34.78;;;;;;;;;;5095505;28;20040;-47
2022/03/17 08:16:04;;;;;;;73.57;35.13;;;;;;;;;;5093569;28;20441;-47
2022/03/17 08:18:31;;;;;;;76.10;35.30;;;;;;;;;;5093568;28;20056;-47
2022/03/17 08:20:57;;;;;;;76.05;34.75;;;;;;;;;;5094354;28;20065;-47
2022/03/17 08:23:23;;;;;;;68.15;33.35;;;;;;;;;;5095382;28;20099;-51
2022/03/17 08:25:50;;;;;;;67.25;32.95;;;;;;;;;;5095570;28;20095;-47
2022/03/17 08:28:19;;;;;;;70.53;34.22;;;;;;;;;;5090093;28;20035;-47
2022/03/17 08:30:46;;;;;;;74.63;36.05;;;;;;;;;;5095191;28;20031;-48
2022/03/17 08:33:13;;;;;;;72.70;33.60;;;;;;;;;;5094983;28;20547;-48
2022/03/17 08:35:40;;;;;;;67.07;32.70;;;;;;;;;;5094239;28;20452;-49
2022/03/17 08:38:06;;;;;;;72.82;34.88;;;;;;;;;;5095076;28;20024;-48
2022/03/17 08:40:31;;;;;;;73.30;34.75;;;;;;;;;;5095198;28;20380;-47
2022/03/17 08:42:57;;;;;;;69.80;33.60;;;;;;;;;;5090589;28;20028;-48
2022/03/17 08:50:54;;;;;;;68.15;32.85;;;;;;;;;;5083851;28;20508;-47
2022/03/17 08:53:20;;;;;;;66.15;32.50;;;;;;;;;;5082523;28;20059;-49
2022/03/17 08:55:46;;;;;;;71.30;32.28;;;;;;;;;;5083211;28;20036;-47
2022/03/17 08:58:13;;;;;;;63.72;32.63;;;;;;;;;;5094293;28;20089;-47
2022/03/17 09:00:40;;;;;;;69.55;33.70;;;;;;;;;;5089897;28;20104;-47
2022/03/17 09:03:06;;;;;;;66.03;31.98;;;;;;;;;;5091723;28;20020;-47
2022/03/17 09:05:33;;;;;;;68.20;33.38;;;;;;;;;;5086116;28;20091;-47
2022/03/17 09:07:59;;;;;;;68.50;32.67;;;;;;;;;;5090348;28;20028;-51
2022/03/17 09:10:25;;;;;;;76.65;35.72;;;;;;;;;;5081304;28;20476;-47
2022/03/17 09:12:57;;;;;;;62.72;32.15;;;;;;;;;;5079288;28;20036;-47
2022/03/17 09:15:24;;;;;;;69.68;34.25;;;;;;;;;;5093373;28;20024;-49
2022/03/17 09:17:50;;;;;;;69.13;34.85;;;;;;;;;;5080729;28;20423;-48
2022/03/17 09:20:16;;;;;;;70.03;33.72;;;;;;;;;;5076420;28;20033;-47
2022/03/17 09:22:43;;;;;;;67.22;32.30;;;;;;;;;;5087892;28;20111;-47
2022/03/17 09:25:09;;;;;;;73.50;35.33;;;;;;;;;;5088641;28;20031;-50
2022/03/17 09:27:35;;;;;;;71.28;33.15;;;;;;;;;;5085300;28;20051;-47
2022/03/17 09:30:01;;;;;;;67.30;32.17;;;;;;;;;;5089179;28;20024;-47
2022/03/17 09:32:27;;;;;;;67.13;31.17;;;;;;;;;;5093750;28;20027;-47
2022/03/17 09:34:53;;;;;;;67.68;33.63;;;;;;;;;;5087313;28;20060;-47
2022/03/17 09:37:19;;;;;;;73.50;33.72;;;;;;;;;;5091683;28;20035;-48
2022/03/17 09:39:45;;;;;;;63.25;30.63;;;;;;;;;;5081164;28;20032;-47
2022/03/17 09:42:14;;;;;;;66.55;33.47;;;;;;;;;;5078254;28;20465;-46
2022/03/17 09:44:40;;;;;;;67.07;31.67;;;;;;;;;;5084447;28;20028;-48
2022/03/17 09:47:09;;;;;;;64.85;32.20;;;;;;;;;;5085699;28;20043;-47
2022/03/17 09:49:37;;;;;;;63.78;31.27;;;;;;;;;;5083190;28;20059;-47
2022/03/17 09:52:11;;;;;;;63.72;33.65;;;;;;;;;;5081874;28;20027;-48
2022/03/17 09:54:37;;;;;;;64.20;32.08;;;;;;;;;;5091654;28;20391;-47
2022/03/17 09:57:03;;;;;;;66.95;33.80;;;;;;;;;;5075140;28;20108;-48
2022/03/17 09:59:29;;;;;;;66.57;32.67;;;;;;;;;;5083498;28;20024;-48
2022/03/17 10:01:57;;;;;;;66.25;32.03;;;;;;;;;;5081082;28;20128;-47
2022/03/17 10:04:23;;;;;;;61.03;31.58;;;;;;;;;;5080343;28;20714;-47
2022/03/17 10:06:50;;;;;;;63.78;31.75;;;;;;;;;;5080269;28;20033;-47
2022/03/17 10:09:16;;;;;;;66.18;33.33;;;;;;;;;;5082145;28;20032;-47
2022/03/17 10:11:43;;;;;;;61.40;31.25;;;;;;;;;;5075634;28;20032;-47
2022/03/17 10:14:09;;;;;;;63.28;30.95;;;;;;;;;;5081867;28;20038;-47
2022/03/17 10:16:37;;;;;;;61.00;30.88;;;;;;;;;;5079545;28;20035;-47
2022/03/17 10:19:04;;;;;;;60.05;30.00;;;;;;;;;;5080949;28;20152;-47
2022/03/17 10:21:30;;;;;;;67.05;29.73;;;;;;;;;;5085359;28;20028;-47
2022/03/17 10:24:01;;;;;;;62.58;31.45;;;;;;;;;;5089504;28;20157;-50
2022/03/17 10:26:37;;;;;;;62.33;30.15;;;;;;;;;;5079934;28;20037;-50
2022/03/17 10:29:08;;;;;;;60.72;30.13;;;;;;;;;;5083594;28;20028;-47
2022/03/17 10:31:52;;;;;;;64.50;30.73;;;;;;;;;;5088666;28;20063;-47
2022/03/17 10:34:18;;;;;;;63.25;30.75;;;;;;;;;;5079617;28;20036;-48
2022/03/17 10:36:48;;;;;;;67.25;30.58;;;;;;;;;;5086288;28;20379;-47
2022/03/17 10:39:14;;;;;;;62.10;30.42;;;;;;;;;;5091311;28;20027;-47
2022/03/17 10:41:41;;;;;;;68.30;31.02;;;;;;;;;;5087133;28;20082;-49
2022/03/17 10:44:10;;;;;;;57.72;30.23;;;;;;;;;;5083183;28;20034;-49
2022/03/17 10:46:36;;;;;;;54.97;28.10;;;;;;;;;;5081037;28;20071;-47
2022/03/17 10:49:03;;;;;;;57.67;28.92;;;;;;;;;;5078860;28;20028;-49
2022/03/17 10:51:40;;;;;;;57.38;28.35;;;;;;;;;;5089624;28;20039;-47
2022/03/17 10:54:08;;;;;;;57.80;29.25;;;;;;;;;;5081983;28;20472;-48
2022/03/17 10:56:36;;;;;;;57.70;29.40;;;;;;;;;;5081485;28;20035;-47
2022/03/17 10:59:02;;;;;;;56.05;28.77;;;;;;;;;;5082306;28;20016;-49
2022/03/17 11:01:47;;;;;;;62.65;29.48;;;;;;;;;;5082258;28;20095;-47
2022/03/17 11:04:13;;;;;;;56.42;29.85;;;;;;;;;;5083924;28;20027;-47
2022/03/17 11:06:40;;;;;;;58.38;29.55;;;;;;;;;;5083480;28;20036;-47
2022/03/17 11:09:08;;;;;;;55.63;28.75;;;;;;;;;;5078520;28;20025;-47
2022/03/17 11:11:34;;;;;;;57.58;27.63;;;;;;;;;;5077531;28;20028;-47
2022/03/17 11:14:00;;;;;;;58.63;30.00;;;;;;;;;;5079703;28;20452;-48
2022/03/17 11:16:47;;;;;;;56.33;27.58;;;;;;;;;;5079010;28;20029;-47
2022/03/17 11:19:16;;;;;;;52.58;27.50;;;;;;;;;;5076127;28;20070;-47
2022/03/17 11:21:46;;;;;;;54.30;29.02;;;;;;;;;;5085952;28;20483;-47
2022/03/17 11:24:19;;;;;;;59.03;28.63;;;;;;;;;;5080890;28;20024;-49
2022/03/17 11:26:46;;;;;;;51.92;27.05;;;;;;;;;;5085041;28;20032;-48
2022/03/17 11:29:13;;;;;;;56.97;29.05;;;;;;;;;;5090665;28;20051;-51
2022/03/17 11:31:57;;;;;;;55.88;27.45;;;;;;;;;;5080170;28;20143;-48
2022/03/17 11:34:38;;;;;;;55.97;27.33;;;;;;;;;;5081109;28;20115;-50
2022/03/17 11:37:15;;;;;;;53.35;26.58;;;;;;;;;;5080691;28;20020;-48
2022/03/17 11:40:09;;;;;;;53.50;27.58;;;;;;;;;;5079736;28;20379;-47
2022/03/17 11:42:40;;;;;;;53.20;26.30;;;;;;;;;;5082053;28;20029;-48
2022/03/17 11:45:10;;;;;;;53.13;27.70;;;;;;;;;;5081255;28;20059;-48
2022/03/17 11:47:37;;;;;;;50.65;26.83;;;;;;;;;;5080775;28;20017;-51
2022/03/17 11:50:22;;;;;;;47.53;26.65;;;;;;;;;;5077203;28;20433;-47
2022/03/17 11:52:52;;;;;;;52.08;27.15;;;;;;;;;;5072649;28;20112;-47
2022/03/17 11:55:30;;;;;;;48.67;25.45;;;;;;;;;;5080159;28;20032;-48
2022/03/17 11:58:15;;;;;;;48.22;26.25;;;;;;;;;;5088958;28;20097;-48
2022/03/17 12:01:05;;;;;;;50.03;25.42;;;;;;;;;;5088992;28;20036;-47
2022/03/17 12:03:51;;;;;;;52.35;26.10;;;;;;;;;;5067269;28;20039;-47
2022/03/17 12:06:19;;;;;;;47.78;25.02;;;;;;;;;;5087759;28;20035;-47
2022/03/17 12:08:48;;;;;;;50.40;26.83;;;;;;;;;;5085704;28;20032;-47
2022/03/17 12:11:15;;;;;;;51.08;26.05;;;;;;;;;;5078101;28;20024;-47
2022/03/17 12:13:41;;;;;;;55.70;26.00;;;;;;;;;;5075053;28;20099;-48
2022/03/17 12:16:08;;;;;;;51.22;26.05;;;;;;;;;;5088894;28;20020;-48
2022/03/17 12:18:59;;;;;;;52.88;24.75;;;;;;;;;;5083428;28;20029;-47
2022/03/17 12:21:43;;;;;;;52.95;26.42;;;;;;;;;;5079462;28;20365;-48
2022/03/17 12:24:10;;;;;;;46.47;24.88;;;;;;;;;;5079757;28;20027;-48
2022/03/17 12:26:35;;;;;;;48.00;25.13;;;;;;;;;;5084650;28;20457;-48
2022/03/17 12:29:01;;;;;;;47.40;25.30;;;;;;;;;;5082400;28;20040;-48
2022/03/17 12:31:27;;;;;;;48.80;26.10;;;;;;;;;;5084687;28;20150;-49
2022/03/17 12:33:54;;;;;;;47.13;24.20;;;;;;;;;;5089693;28;20039;-47
2022/03/17 12:36:23;;;;;;;48.08;24.17;;;;;;;;;;5086953;28;20028;-47
2022/03/17 12:38:49;;;;;;;53.85;25.83;;;;;;;;;;5080853;28;20521;-47
2022/03/17 12:41:15;;;;;;;48.35;25.52;;;;;;;;;;5089567;28;20526;-47
2022/03/17 12:43:41;;;;;;;47.00;24.77;;;;;;;;;;5082518;28;20098;-47
2022/03/17 12:46:07;;;;;;;50.08;25.00;;;;;;;;;;5082622;28;20020;-47
2022/03/17 12:48:34;;;;;;;46.75;24.10;;;;;;;;;;5080408;28;20035;-47
2022/03/17 12:51:11;;;;;;;48.80;24.23;;;;;;;;;;5094306;28;20020;-47
2022/03/17 12:53:39;;;;;;;48.38;24.73;;;;;;;;;;5083967;28;20582;-47
2022/03/17 12:56:05;;;;;;;49.50;24.55;;;;;;;;;;5076971;28;20119;-48
2022/03/17 12:58:39;;;;;;;44.20;24.52;;;;;;;;;;5086383;28;20024;-48
2022/03/17 13:01:05;;;;;;;47.05;24.10;;;;;;;;;;5080837;28;20024;-47
2022/03/17 13:03:31;;;;;;;46.72;24.58;;;;;;;;;;5082292;28;20039;-49
2022/03/17 13:08:45;;;;;;;47.65;24.08;;;;;;;;;;5074091;28;20085;-48
2022/03/17 13:16:43;;;;;;;48.42;24.27;;;;;;;;;;5082095;28;20065;-49
2022/03/17 13:19:10;;;;;;;47.83;24.42;;;;;;;;;;5085510;28;20036;-47
2022/03/17 13:21:37;;;;;;;46.08;24.30;;;;;;;;;;5086958;28;20039;-47
2022/03/17 13:24:15;;;;;;;45.38;22.13;;;;;;;;;;5081334;28;20035;-49
2022/03/17 13:26:41;;;;;;;44.17;22.75;;;;;;;;;;5088171;28;20032;-49
2022/03/17 13:29:07;;;;;;;43.40;23.20;;;;;;;;;;5080685;28;20028;-48
2022/03/17 13:31:37;;;;;;;50.22;24.90;;;;;;;;;;5080942;28;20527;-47
2022/03/17 13:34:03;;;;;;;45.08;22.10;;;;;;;;;;5080419;28;20032;-48
2022/03/17 13:36:48;;;;;;;49.83;25.25;;;;;;;;;;5082450;28;20024;-47
2022/03/17 13:39:14;;;;;;;44.42;24.02;;;;;;;;;;5078914;28;20024;-47
2022/03/17 13:41:40;;;;;;;45.85;24.88;;;;;;;;;;5079741;28;20037;-48
2022/03/17 13:44:08;;;;;;;46.03;24.60;;;;;;;;;;5076214;28;20037;-47
2022/03/17 13:46:39;;;;;;;42.40;23.08;;;;;;;;;;5080335;28;20357;-48
2022/03/17 13:49:15;;;;;;;43.22;23.05;;;;;;;;;;5088604;28;20028;-47
2022/03/17 13:51:41;;;;;;;41.03;22.17;;;;;;;;;;5078624;28;20468;-47
2022/03/17 13:54:07;;;;;;;48.88;24.25;;;;;;;;;;5080203;28;20051;-48
2022/03/17 13:56:35;;;;;;;44.10;23.02;;;;;;;;;;5079719;28;20036;-47
2022/03/17 13:59:01;;;;;;;43.47;22.70;;;;;;;;;;5088904;28;20203;-53
2022/03/17 14:01:27;;;;;;;41.80;21.38;;;;;;;;;;5086707;28;20016;-49
2022/03/17 14:03:58;;;;;;;44.55;22.88;;;;;;;;;;5075837;28;20032;-51
2022/03/17 14:06:31;;;;;;;39.67;21.52;;;;;;;;;;5082660;28;20404;-47
2022/03/17 14:08:58;;;;;;;43.40;22.35;;;;;;;;;;5082338;28;20035;-48
2022/03/17 14:11:25;;;;;;;43.13;22.30;;;;;;;;;;5078633;28;20035;-49
2022/03/17 14:13:58;;;;;;;45.38;23.00;;;;;;;;;;5091524;28;20028;-49
2022/03/17 14:16:25;;;;;;;38.67;21.50;;;;;;;;;;5086993;28;20028;-47
2022/03/17 14:18:52;;;;;;;43.10;22.30;;;;;;;;;;5083057;28;20676;-50
2022/03/17 14:21:19;;;;;;;46.67;23.48;;;;;;;;;;5081989;28;20046;-47
2022/03/17 14:26:35;;;;;;;45.55;22.38;;;;;;;;;;5091265;28;20372;-51
2022/03/17 14:29:06;;;;;;;43.70;22.70;;;;;;;;;;5089969;28;20036;-47
2022/03/17 14:31:34;;;;;;;43.72;22.15;;;;;;;;;;5073796;28;20024;-49
2022/03/17 14:34:00;;;;;;;44.20;21.67;;;;;;;;;;5083873;28;20020;-49
2022/03/17 14:36:28;;;;;;;44.95;23.30;;;;;;;;;;5077114;28;20028;-47
2022/03/17 14:38:54;;;;;;;44.78;22.90;;;;;;;;;;5078456;28;20028;-47
2022/03/17 14:41:21;;;;;;;43.13;22.23;;;;;;;;;;5077397;28;20027;-48
2022/03/17 14:43:50;;;;;;;42.75;20.98;;;;;;;;;;5077130;28;20020;-49
2022/03/17 14:46:16;;;;;;;40.17;20.70;;;;;;;;;;5080002;28;20035;-49
2022/03/17 14:48:43;;;;;;;43.42;23.15;;;;;;;;;;5080551;28;20016;-51